sensor_id;sensor_type;location;lat;lon;timestamp;pressure;altitude;pressure_sealevel;temperature;humidity
76827;BME280;65788;52.284;20.890;2023-04-01T00:01:47;98454.39;;;19.29;45.40
76827;BME280;65788;52.284;20.890;2023-04-01T00:04:13;98449.58;;;19.28;45.40
76827;BME280;65788;52.284;20.890;2023-04-01T00:06:42;98449.63;;;19.28;45.36
76827;BME280;65788;52.284;20.890;2023-04-01T00:09:09;98446.19;;;19.28;45.36
76827;BME280;65788;52.284;20.890;2023-04-01T00:11:36;98445.50;;;19.26;45.40
76827;BME280;65788;52.284;20.890;2023-04-01T00:14:04;98439.02;;;19.26;45.39
76827;BME280;65788;52.284;20.890;2023-04-01T00:16:32;98440.96;;;19.26;45.35
76827;BME280;65788;52.284;20.890;2023-04-01T00:18:59;98441.45;;;19.24;45.38
76827;BME280;65788;52.284;20.890;2023-04-01T00:21:26;98440.39;;;19.24;45.37
76827;BME280;65788;52.284;20.890;2023-04-01T00:23:54;98442.45;;;19.23;45.38
76827;BME280;65788;52.284;20.890;2023-04-01T00:26:21;98439.01;;;19.22;45.40
76827;BME280;65788;52.284;20.890;2023-04-01T00:28:48;98435.34;;;19.22;45.39
76827;BME280;65788;52.284;20.890;2023-04-01T00:31:16;98430.29;;;19.21;45.42
76827;BME280;65788;52.284;20.890;2023-04-01T00:33:44;98427.06;;;19.20;45.41
76827;BME280;65788;52.284;20.890;2023-04-01T00:36:12;98429.28;;;19.21;45.38
76827;BME280;65788;52.284;20.890;2023-04-01T00:38:39;98428.85;;;19.21;45.34
76827;BME280;65788;52.284;20.890;2023-04-01T00:41:09;98428.16;;;19.19;45.38
76827;BME280;65788;52.284;20.890;2023-04-01T00:43:42;98426.99;;;19.18;45.40
76827;BME280;65788;52.284;20.890;2023-04-01T00:46:10;98424.83;;;19.17;45.44
76827;BME280;65788;52.284;20.890;2023-04-01T00:48:54;98427.66;;;19.18;45.41
76827;BME280;65788;52.284;20.890;2023-04-01T00:51:27;98425.16;;;19.17;45.39
76827;BME280;65788;52.284;20.890;2023-04-01T00:53:58;98420.17;;;19.16;45.40
76827;BME280;65788;52.284;20.890;2023-04-01T00:56:35;98420.66;;;19.15;45.44
76827;BME280;65788;52.284;20.890;2023-04-01T00:59:09;98423.98;;;19.13;45.47
76827;BME280;65788;52.284;20.890;2023-04-01T01:01:37;98419.66;;;19.15;45.42
76827;BME280;65788;52.284;20.890;2023-04-01T01:04:05;98412.27;;;19.13;45.42
76827;BME280;65788;52.284;20.890;2023-04-01T01:06:39;98408.80;;;19.14;45.43
76827;BME280;65788;52.284;20.890;2023-04-01T01:15:06;98410.05;;;19.13;45.40
76827;BME280;65788;52.284;20.890;2023-04-01T01:17:38;98415.04;;;19.13;45.38
76827;BME280;65788;52.284;20.890;2023-04-01T01:23:11;98419.64;;;19.12;45.40
76827;BME280;65788;52.284;20.890;2023-04-01T01:26:13;98415.88;;;19.12;45.35
76827;BME280;65788;52.284;20.890;2023-04-01T01:29:16;98414.80;;;19.11;45.37
76827;BME280;65788;52.284;20.890;2023-04-01T01:34:44;98420.36;;;19.10;45.38
76827;BME280;65788;52.284;20.890;2023-04-01T01:37:16;98416.25;;;19.10;45.36
76827;BME280;65788;52.284;20.890;2023-04-01T01:39:49;98418.80;;;19.11;45.31
76827;BME280;65788;52.284;20.890;2023-04-01T01:42:18;98424.23;;;19.10;45.31
76827;BME280;65788;52.284;20.890;2023-04-01T01:44:47;98420.85;;;19.09;45.33
76827;BME280;65788;52.284;20.890;2023-04-01T01:47:17;98422.02;;;19.10;45.29
76827;BME280;65788;52.284;20.890;2023-04-01T01:49:46;98421.35;;;19.07;45.34
76827;BME280;65788;52.284;20.890;2023-04-01T01:52:17;98419.67;;;19.07;45.34
76827;BME280;65788;52.284;20.890;2023-04-01T01:54:52;98421.00;;;19.06;45.36
76827;BME280;65788;52.284;20.890;2023-04-01T01:57:26;98420.17;;;19.07;45.30
76827;BME280;65788;52.284;20.890;2023-04-01T01:59:58;98419.61;;;19.06;45.32
76827;BME280;65788;52.284;20.890;2023-04-01T02:02:27;98417.19;;;19.06;45.30
76827;BME280;65788;52.284;20.890;2023-04-01T02:04:58;98413.52;;;19.05;45.30
76827;BME280;65788;52.284;20.890;2023-04-01T02:07:31;98414.02;;;19.08;45.24
76827;BME280;65788;52.284;20.890;2023-04-01T02:09:59;98411.41;;;19.06;45.27
76827;BME280;65788;52.284;20.890;2023-04-01T02:12:27;98409.46;;;19.06;45.27
76827;BME280;65788;52.284;20.890;2023-04-01T02:15:03;98402.27;;;19.09;45.19
76827;BME280;65788;52.284;20.890;2023-04-01T02:17:33;98401.98;;;19.06;45.24
76827;BME280;65788;52.284;20.890;2023-04-01T02:20:08;98401.83;;;19.06;45.21
76827;BME280;65788;52.284;20.890;2023-04-01T02:22:40;98395.10;;;19.05;45.22
76827;BME280;65788;52.284;20.890;2023-04-01T02:25:15;98391.15;;;19.02;45.26
76827;BME280;65788;52.284;20.890;2023-04-01T02:27:45;98386.55;;;19.04;45.21
76827;BME280;65788;52.284;20.890;2023-04-01T02:30:15;98387.67;;;19.04;45.21
76827;BME280;65788;52.284;20.890;2023-04-01T02:32:42;98387.77;;;19.02;45.23
76827;BME280;65788;52.284;20.890;2023-04-01T02:35:13;98387.00;;;19.03;45.21
76827;BME280;65788;52.284;20.890;2023-04-01T02:37:40;98388.77;;;19.03;45.20
76827;BME280;65788;52.284;20.890;2023-04-01T02:40:10;98389.60;;;19.03;45.20
76827;BME280;65788;52.284;20.890;2023-04-01T02:42:37;98384.10;;;19.00;45.23
76827;BME280;65788;52.284;20.890;2023-04-01T02:45:05;98387.86;;;18.99;45.27
76827;BME280;65788;52.284;20.890;2023-04-01T02:47:33;98389.92;;;19.00;45.23
76827;BME280;65788;52.284;20.890;2023-04-01T02:50:00;98387.74;;;18.98;45.26
76827;BME280;65788;52.284;20.890;2023-04-01T02:52:28;98388.20;;;19.00;45.24
76827;BME280;65788;52.284;20.890;2023-04-01T02:54:56;98389.97;;;18.99;45.23
76827;BME280;65788;52.284;20.890;2023-04-01T02:57:24;98382.81;;;18.99;45.22
76827;BME280;65788;52.284;20.890;2023-04-01T02:59:51;98392.54;;;19.02;45.18
76827;BME280;65788;52.284;20.890;2023-04-01T03:02:19;98396.55;;;18.98;45.26
76827;BME280;65788;52.284;20.890;2023-04-01T03:04:46;98397.20;;;18.98;45.26
76827;BME280;65788;52.284;20.890;2023-04-01T03:07:12;98397.67;;;18.98;45.33
76827;BME280;65788;52.284;20.890;2023-04-01T03:09:40;98398.55;;;18.99;45.30
76827;BME280;65788;52.284;20.890;2023-04-01T03:12:07;98398.16;;;18.97;45.37
76827;BME280;65788;52.284;20.890;2023-04-01T03:14:34;98397.61;;;18.97;45.42
76827;BME280;65788;52.284;20.890;2023-04-01T03:17:01;98403.31;;;18.96;45.47
76827;BME280;65788;52.284;20.890;2023-04-01T03:19:28;98400.43;;;18.96;45.50
76827;BME280;65788;52.284;20.890;2023-04-01T03:21:55;98406.36;;;18.96;45.52
76827;BME280;65788;52.284;20.890;2023-04-01T03:24:23;98406.74;;;18.95;45.54
76827;BME280;65788;52.284;20.890;2023-04-01T03:26:51;98408.80;;;18.96;45.52
76827;BME280;65788;52.284;20.890;2023-04-01T03:29:18;98408.45;;;18.95;45.58
76827;BME280;65788;52.284;20.890;2023-04-01T03:31:45;98409.23;;;18.95;45.60
76827;BME280;65788;52.284;20.890;2023-04-01T03:34:12;98409.40;;;18.95;45.61
76827;BME280;65788;52.284;20.890;2023-04-01T03:36:39;98414.95;;;18.94;45.64
76827;BME280;65788;52.284;20.890;2023-04-01T03:39:06;98411.90;;;18.95;45.61
76827;BME280;65788;52.284;20.890;2023-04-01T03:41:36;98414.60;;;18.94;45.68
76827;BME280;65788;52.284;20.890;2023-04-01T03:44:03;98417.83;;;18.94;45.66
76827;BME280;65788;52.284;20.890;2023-04-01T03:46:31;98416.23;;;18.95;45.64
76827;BME280;65788;52.284;20.890;2023-04-01T03:48:58;98423.90;;;18.92;45.69
76827;BME280;65788;52.284;20.890;2023-04-01T03:51:25;98422.35;;;18.92;45.70
76827;BME280;65788;52.284;20.890;2023-04-01T03:53:52;98423.96;;;18.92;45.72
76827;BME280;65788;52.284;20.890;2023-04-01T03:56:19;98424.62;;;18.90;45.81
76827;BME280;65788;52.284;20.890;2023-04-01T03:58:46;98427.73;;;18.91;45.76
76827;BME280;65788;52.284;20.890;2023-04-01T04:01:14;98430.98;;;18.90;45.74
76827;BME280;65788;52.284;20.890;2023-04-01T04:03:41;98428.89;;;18.90;45.71
76827;BME280;65788;52.284;20.890;2023-04-01T04:06:11;98437.23;;;18.89;45.69
76827;BME280;65788;52.284;20.890;2023-04-01T04:08:39;98442.50;;;18.90;45.62
76827;BME280;65788;52.284;20.890;2023-04-01T04:11:06;98443.34;;;18.90;45.59
76827;BME280;65788;52.284;20.890;2023-04-01T04:13:33;98445.23;;;18.90;45.60
76827;BME280;65788;52.284;20.890;2023-04-01T04:16:01;98446.34;;;18.90;45.60
76827;BME280;65788;52.284;20.890;2023-04-01T04:18:28;98447.44;;;18.90;45.64
76827;BME280;65788;52.284;20.890;2023-04-01T04:20:55;98448.75;;;18.88;45.65
76827;BME280;65788;52.284;20.890;2023-04-01T04:23:23;98451.73;;;18.92;45.61
76827;BME280;65788;52.284;20.890;2023-04-01T04:26:10;98452.91;;;18.95;45.50
76827;BME280;65788;52.284;20.890;2023-04-01T04:28:38;98454.98;;;18.97;45.41
76827;BME280;65788;52.284;20.890;2023-04-01T04:31:06;98456.83;;;18.99;45.41
76827;BME280;65788;52.284;20.890;2023-04-01T04:33:34;98455.59;;;19.04;45.28
76827;BME280;65788;52.284;20.890;2023-04-01T04:36:02;98458.92;;;19.16;45.09
76827;BME280;65788;52.284;20.890;2023-04-01T04:38:30;98462.85;;;19.23;44.91
76827;BME280;65788;52.284;20.890;2023-04-01T04:40:57;98462.34;;;19.31;44.79
76827;BME280;65788;52.284;20.890;2023-04-01T04:43:24;98465.77;;;19.39;44.65
76827;BME280;65788;52.284;20.890;2023-04-01T04:45:51;98469.87;;;19.48;44.44
76827;BME280;65788;52.284;20.890;2023-04-01T04:48:18;98469.85;;;19.56;44.30
76827;BME280;65788;52.284;20.890;2023-04-01T04:50:48;98467.75;;;19.61;44.19
76827;BME280;65788;52.284;20.890;2023-04-01T04:53:17;98466.27;;;19.66;44.12
76827;BME280;65788;52.284;20.890;2023-04-01T04:55:46;98466.25;;;19.72;44.03
76827;BME280;65788;52.284;20.890;2023-04-01T04:58:15;98469.88;;;19.75;44.03
76827;BME280;65788;52.284;20.890;2023-04-01T05:00:43;98471.38;;;19.78;44.01
76827;BME280;65788;52.284;20.890;2023-04-01T05:03:10;98473.06;;;19.80;43.99
76827;BME280;65788;52.284;20.890;2023-04-01T05:05:37;98474.27;;;19.85;43.92
76827;BME280;65788;52.284;20.890;2023-04-01T05:08:05;98477.23;;;19.90;43.83
76827;BME280;65788;52.284;20.890;2023-04-01T05:10:32;98476.84;;;19.91;43.83
76827;BME280;65788;52.284;20.890;2023-04-01T05:12:59;98477.13;;;19.93;43.82
76827;BME280;65788;52.284;20.890;2023-04-01T05:15:26;98478.86;;;19.96;43.76
76827;BME280;65788;52.284;20.890;2023-04-01T05:17:53;98478.47;;;19.99;43.68
76827;BME280;65788;52.284;20.890;2023-04-01T05:20:20;98473.00;;;20.03;43.62
76827;BME280;65788;52.284;20.890;2023-04-01T05:22:46;98478.10;;;20.05;43.57
76827;BME280;65788;52.284;20.890;2023-04-01T05:25:13;98477.66;;;20.07;43.54
76827;BME280;65788;52.284;20.890;2023-04-01T05:27:40;98481.63;;;20.10;43.49
76827;BME280;65788;52.284;20.890;2023-04-01T05:30:07;98480.57;;;20.14;43.39
76827;BME280;65788;52.284;20.890;2023-04-01T05:32:34;98478.40;;;20.15;43.39
76827;BME280;65788;52.284;20.890;2023-04-01T05:35:02;98482.19;;;20.17;43.33
76827;BME280;65788;52.284;20.890;2023-04-01T05:37:28;98480.19;;;20.20;43.27
76827;BME280;65788;52.284;20.890;2023-04-01T05:39:56;98478.42;;;20.23;43.22
76827;BME280;65788;52.284;20.890;2023-04-01T05:42:25;98478.82;;;20.24;43.15
76827;BME280;65788;52.284;20.890;2023-04-01T05:44:52;98474.38;;;20.28;43.07
76827;BME280;65788;52.284;20.890;2023-04-01T05:47:19;98475.38;;;20.31;43.01
76827;BME280;65788;52.284;20.890;2023-04-01T05:49:46;98479.94;;;20.34;42.93
76827;BME280;65788;52.284;20.890;2023-04-01T05:52:13;98480.39;;;20.36;42.87
76827;BME280;65788;52.284;20.890;2023-04-01T05:54:40;98482.07;;;20.38;42.77
76827;BME280;65788;52.284;20.890;2023-04-01T05:57:07;98482.68;;;20.41;42.69
76827;BME280;65788;52.284;20.890;2023-04-01T05:59:34;98486.52;;;20.43;42.67
76827;BME280;65788;52.284;20.890;2023-04-01T06:02:01;98485.63;;;20.41;42.67
76827;BME280;65788;52.284;20.890;2023-04-01T06:04:35;98485.97;;;20.44;42.62
76827;BME280;65788;52.284;20.890;2023-04-01T06:07:15;98485.52;;;20.45;42.57
76827;BME280;65788;52.284;20.890;2023-04-01T06:09:43;98484.24;;;20.48;42.49
76827;BME280;65788;52.284;20.890;2023-04-01T06:12:42;98483.19;;;20.50;42.43
76827;BME280;65788;52.284;20.890;2023-04-01T06:21:01;98489.20;;;20.55;42.30
76827;BME280;65788;52.284;20.890;2023-04-01T06:23:38;98494.65;;;20.56;42.38
76827;BME280;65788;52.284;20.890;2023-04-01T06:29:08;98500.04;;;20.61;42.48
76827;BME280;65788;52.284;20.890;2023-04-01T06:34:32;98503.38;;;20.62;42.49
76827;BME280;65788;52.284;20.890;2023-04-01T06:42:53;98503.85;;;20.69;42.52
76827;BME280;65788;52.284;20.890;2023-04-01T06:48:02;98506.52;;;20.74;42.57
76827;BME280;65788;52.284;20.890;2023-04-01T06:50:44;98502.64;;;20.73;42.74
76827;BME280;65788;52.284;20.890;2023-04-01T06:53:24;98506.03;;;20.72;42.78
76827;BME280;65788;52.284;20.890;2023-04-01T06:56:32;98505.80;;;20.74;42.92
76827;BME280;65788;52.284;20.890;2023-04-01T06:59:22;98504.13;;;20.76;42.86
76827;BME280;65788;52.284;20.890;2023-04-01T07:01:55;98504.58;;;20.79;42.79
76827;BME280;65788;52.284;20.890;2023-04-01T07:09:49;98510.97;;;20.86;42.67
76827;BME280;65788;52.284;20.890;2023-04-01T07:17:43;98513.31;;;20.86;42.78
76827;BME280;65788;52.284;20.890;2023-04-01T07:20:20;98512.37;;;20.88;42.86
76827;BME280;65788;52.284;20.890;2023-04-01T07:22:52;98510.30;;;20.91;42.74
76827;BME280;65788;52.284;20.890;2023-04-01T07:25:31;98510.59;;;21.01;43.63
76827;BME280;65788;52.284;20.890;2023-04-01T07:28:05;98503.46;;;21.09;42.87
76827;BME280;65788;52.284;20.890;2023-04-01T07:36:37;98502.63;;;21.37;42.14
76827;BME280;65788;52.284;20.890;2023-04-01T07:39:30;98501.78;;;21.49;42.83
76827;BME280;65788;52.284;20.890;2023-04-01T07:44:37;98502.48;;;21.61;41.57
76827;BME280;65788;52.284;20.890;2023-04-01T07:47:13;98505.91;;;21.68;41.37
76827;BME280;65788;52.284;20.890;2023-04-01T07:49:57;98502.93;;;21.77;41.20
76827;BME280;65788;52.284;20.890;2023-04-01T07:52:51;98501.55;;;21.75;41.17
76827;BME280;65788;52.284;20.890;2023-04-01T07:55:38;98503.52;;;21.68;41.14
76827;BME280;65788;52.284;20.890;2023-04-01T08:00:42;98507.30;;;21.71;41.14
76827;BME280;65788;52.284;20.890;2023-04-01T08:05:59;98506.14;;;21.67;41.16
76827;BME280;65788;52.284;20.890;2023-04-01T08:11:10;98510.37;;;21.87;40.82
76827;BME280;65788;52.284;20.890;2023-04-01T08:21:37;98516.12;;;22.05;40.25
76827;BME280;65788;52.284;20.890;2023-04-01T08:24:27;98518.40;;;22.06;40.15
76827;BME280;65788;52.284;20.890;2023-04-01T08:26:59;98517.41;;;22.16;39.94
76827;BME280;65788;52.284;20.890;2023-04-01T08:29:40;98521.40;;;22.19;39.79
76827;BME280;65788;52.284;20.890;2023-04-01T08:32:16;98517.45;;;22.19;39.62
76827;BME280;65788;52.284;20.890;2023-04-01T08:34:51;98519.84;;;22.11;39.78
76827;BME280;65788;52.284;20.890;2023-04-01T08:37:30;98521.96;;;22.07;39.77
76827;BME280;65788;52.284;20.890;2023-04-01T08:43:11;98523.20;;;22.05;39.97
76827;BME280;65788;52.284;20.890;2023-04-01T08:45:56;98526.79;;;22.09;39.88
76827;BME280;65788;52.284;20.890;2023-04-01T08:57:04;98540.17;;;22.09;39.26
76827;BME280;65788;52.284;20.890;2023-04-01T09:08:36;98539.48;;;22.03;38.89
76827;BME280;65788;52.284;20.890;2023-04-01T09:36:02;98545.17;;;22.00;39.84
76827;BME280;65788;52.284;20.890;2023-04-01T09:41:32;98552.21;;;21.92;39.76
76827;BME280;65788;52.284;20.890;2023-04-01T09:44:06;98553.86;;;21.98;39.43
76827;BME280;65788;52.284;20.890;2023-04-01T10:00:52;98553.98;;;22.11;39.35
76827;BME280;65788;52.284;20.890;2023-04-01T10:03:41;98555.33;;;22.11;39.49
76827;BME280;65788;52.284;20.890;2023-04-01T10:26:25;98564.73;;;22.21;39.32
76827;BME280;65788;52.284;20.890;2023-04-01T10:46:33;98564.33;;;22.03;39.53
76827;BME280;65788;52.284;20.890;2023-04-01T10:49:27;98564.92;;;22.03;39.73
76827;BME280;65788;52.284;20.890;2023-04-01T11:18:03;98587.27;;;21.44;40.69
76827;BME280;65788;52.284;20.890;2023-04-01T11:23:53;98590.45;;;21.43;40.51
76827;BME280;65788;52.284;20.890;2023-04-01T11:26:33;98596.16;;;21.41;40.71
76827;BME280;65788;52.284;20.890;2023-04-01T11:29:40;98593.84;;;21.41;40.81
76827;BME280;65788;52.284;20.890;2023-04-01T11:32:31;98595.52;;;21.38;41.28
76827;BME280;65788;52.284;20.890;2023-04-01T11:54:56;98598.22;;;21.39;41.39
76827;BME280;65788;52.284;20.890;2023-04-01T12:06:32;98593.12;;;21.34;41.42
76827;BME280;65788;52.284;20.890;2023-04-01T12:17:34;98597.63;;;21.26;41.87
76827;BME280;65788;52.284;20.890;2023-04-01T12:20:20;98591.95;;;21.25;41.82
76827;BME280;65788;52.284;20.890;2023-04-01T12:30:39;98595.95;;;21.27;42.01
76827;BME280;65788;52.284;20.890;2023-04-01T12:38:58;98606.03;;;21.22;41.80
76827;BME280;65788;52.284;20.890;2023-04-01T12:42:36;98602.86;;;21.18;42.00
76827;BME280;65788;52.284;20.890;2023-04-01T12:55:55;98621.32;;;21.01;42.59
76827;BME280;65788;52.284;20.890;2023-04-01T13:09:34;98634.30;;;20.85;42.60
76827;BME280;65788;52.284;20.890;2023-04-01T13:12:16;98635.75;;;20.83;43.17
76827;BME280;65788;52.284;20.890;2023-04-01T13:20:23;98642.92;;;20.88;43.36
76827;BME280;65788;52.284;20.890;2023-04-01T13:28:23;98652.45;;;20.93;43.13
76827;BME280;65788;52.284;20.890;2023-04-01T13:31:01;98651.50;;;20.94;43.15
76827;BME280;65788;52.284;20.890;2023-04-01T13:44:21;98671.55;;;20.82;43.74
76827;BME280;65788;52.284;20.890;2023-04-01T13:47:11;98676.55;;;20.81;43.74
76827;BME280;65788;52.284;20.890;2023-04-01T13:55:44;98684.43;;;20.77;43.96
76827;BME280;65788;52.284;20.890;2023-04-01T14:03:50;98693.81;;;20.73;43.75
76827;BME280;65788;52.284;20.890;2023-04-01T14:06:28;98694.67;;;20.69;43.60
76827;BME280;65788;52.284;20.890;2023-04-01T14:17:47;98711.02;;;20.97;43.04
76827;BME280;65788;52.284;20.890;2023-04-01T14:49:35;98739.33;;;21.01;42.59
76827;BME280;65788;52.284;20.890;2023-04-01T14:52:11;98741.77;;;20.93;42.68
76827;BME280;65788;52.284;20.890;2023-04-01T14:54:44;98741.96;;;20.90;42.86
76827;BME280;65788;52.284;20.890;2023-04-01T14:59:54;98748.12;;;20.84;42.91
76827;BME280;65788;52.284;20.890;2023-04-01T15:08:25;98759.65;;;20.79;42.79
76827;BME280;65788;52.284;20.890;2023-04-01T15:18:53;98775.03;;;20.72;42.90
76827;BME280;65788;52.284;20.890;2023-04-01T15:31:57;98791.70;;;20.66;43.35
76827;BME280;65788;52.284;20.890;2023-04-01T15:35:33;98795.58;;;20.63;43.40
76827;BME280;65788;52.284;20.890;2023-04-01T15:40:55;98808.14;;;20.54;43.89
76827;BME280;65788;52.284;20.890;2023-04-01T15:43:48;98803.83;;;20.56;44.18
76827;BME280;65788;52.284;20.890;2023-04-01T15:46:44;98811.75;;;20.51;44.54
76827;BME280;65788;52.284;20.890;2023-04-01T15:49:27;98809.73;;;20.40;44.89
76827;BME280;65788;52.284;20.890;2023-04-01T15:55:26;98819.06;;;20.33;45.13
76827;BME280;65788;52.284;20.890;2023-04-01T16:01:04;98828.19;;;20.27;45.27
76827;BME280;65788;52.284;20.890;2023-04-01T16:06:47;98840.15;;;20.22;45.43
76827;BME280;65788;52.284;20.890;2023-04-01T16:09:39;98846.48;;;20.21;45.49
76827;BME280;65788;52.284;20.890;2023-04-01T16:15:16;98863.69;;;20.20;45.94
76827;BME280;65788;52.284;20.890;2023-04-01T16:18:22;98867.46;;;20.19;46.09
76827;BME280;65788;52.284;20.890;2023-04-01T16:21:14;98869.96;;;20.20;46.06
76827;BME280;65788;52.284;20.890;2023-04-01T16:24:08;98877.70;;;20.21;46.13
76827;BME280;65788;52.284;20.890;2023-04-01T16:26:39;98877.17;;;20.23;46.12
76827;BME280;65788;52.284;20.890;2023-04-01T16:29:27;98881.27;;;20.22;46.11
76827;BME280;65788;52.284;20.890;2023-04-01T16:43:06;98895.75;;;20.19;46.16
76827;BME280;65788;52.284;20.890;2023-04-01T16:46:11;98899.42;;;20.22;46.09
76827;BME280;65788;52.284;20.890;2023-04-01T16:59:37;98933.70;;;20.15;46.20
76827;BME280;65788;52.284;20.890;2023-04-01T17:05:06;98943.47;;;20.15;46.20
76827;BME280;65788;52.284;20.890;2023-04-01T17:08:07;98950.50;;;20.13;46.24
76827;BME280;65788;52.284;20.890;2023-04-01T17:32:41;98984.54;;;20.06;46.20
76827;BME280;65788;52.284;20.890;2023-04-01T17:35:43;98988.30;;;20.05;46.20
76827;BME280;65788;52.284;20.890;2023-04-01T17:43:43;99012.64;;;20.06;46.06
76827;BME280;65788;52.284;20.890;2023-04-01T17:49:02;99020.74;;;20.05;46.00
76827;BME280;65788;52.284;20.890;2023-04-01T17:51:44;99026.51;;;20.04;45.99
76827;BME280;65788;52.284;20.890;2023-04-01T17:57:29;99034.88;;;20.03;45.98
76827;BME280;65788;52.284;20.890;2023-04-01T18:00:03;99040.04;;;20.03;45.94
76827;BME280;65788;52.284;20.890;2023-04-01T18:02:56;99045.33;;;19.99;46.00
76827;BME280;65788;52.284;20.890;2023-04-01T18:24:58;99079.19;;;19.93;45.92
76827;BME280;65788;52.284;20.890;2023-04-01T18:27:31;99077.77;;;19.92;45.92
76827;BME280;65788;52.284;20.890;2023-04-01T18:30:13;99088.70;;;19.92;45.90
76827;BME280;65788;52.284;20.890;2023-04-01T18:35:51;99094.42;;;19.91;45.85
76827;BME280;65788;52.284;20.890;2023-04-01T18:41:18;99107.83;;;19.88;45.90
76827;BME280;65788;52.284;20.890;2023-04-01T18:44:28;99108.28;;;19.89;45.86
76827;BME280;65788;52.284;20.890;2023-04-01T18:47:21;99112.08;;;19.86;45.88
76827;BME280;65788;52.284;20.890;2023-04-01T18:50:02;99118.15;;;19.88;45.81
76827;BME280;65788;52.284;20.890;2023-04-01T18:52:39;99116.59;;;19.87;45.80
76827;BME280;65788;52.284;20.890;2023-04-01T18:55:31;99123.58;;;19.87;45.76
76827;BME280;65788;52.284;20.890;2023-04-01T18:58:22;99123.74;;;19.87;45.72
76827;BME280;65788;52.284;20.890;2023-04-01T19:06:57;99129.63;;;19.84;45.63
76827;BME280;65788;52.284;20.890;2023-04-01T19:09:31;99132.83;;;19.85;45.59
76827;BME280;65788;52.284;20.890;2023-04-01T19:20:59;99146.95;;;19.83;45.50
76827;BME280;65788;52.284;20.890;2023-04-01T19:23:53;99153.31;;;19.82;45.51
76827;BME280;65788;52.284;20.890;2023-04-01T19:26:56;99153.02;;;19.84;45.49
76827;BME280;65788;52.284;20.890;2023-04-01T19:30:08;99157.64;;;19.82;45.47
76827;BME280;65788;52.284;20.890;2023-04-01T19:33:07;99162.38;;;19.81;45.47
76827;BME280;65788;52.284;20.890;2023-04-01T19:35:54;99167.40;;;19.81;45.44
76827;BME280;65788;52.284;20.890;2023-04-01T19:38:31;99169.92;;;19.80;45.41
76827;BME280;65788;52.284;20.890;2023-04-01T19:46:36;99180.12;;;19.79;45.34
76827;BME280;65788;52.284;20.890;2023-04-01T19:57:15;99193.39;;;19.75;45.35
76827;BME280;65788;52.284;20.890;2023-04-01T20:00:05;99199.54;;;19.75;45.33
76827;BME280;65788;52.284;20.890;2023-04-01T20:02:39;99201.50;;;19.77;45.26
76827;BME280;65788;52.284;20.890;2023-04-01T20:08:16;99210.41;;;19.74;45.27
76827;BME280;65788;52.284;20.890;2023-04-01T20:11:26;99215.10;;;19.76;45.24
76827;BME280;65788;52.284;20.890;2023-04-01T20:19:32;99223.25;;;19.71;45.23
76827;BME280;65788;52.284;20.890;2023-04-01T20:22:04;99220.64;;;19.74;45.14
76827;BME280;65788;52.284;20.890;2023-04-01T20:24:41;99225.61;;;19.73;45.11
76827;BME280;65788;52.284;20.890;2023-04-01T20:30:15;99224.51;;;19.73;44.98
76827;BME280;65788;52.284;20.890;2023-04-01T20:32:58;99228.06;;;19.70;45.00
76827;BME280;65788;52.284;20.890;2023-04-01T20:46:45;99242.08;;;19.68;44.77
76827;BME280;65788;52.284;20.890;2023-04-01T20:49:38;99240.11;;;19.67;44.75
76827;BME280;65788;52.284;20.890;2023-04-01T21:00:45;99254.73;;;19.66;44.56
76827;BME280;65788;52.284;20.890;2023-04-01T21:03:24;99258.85;;;19.66;44.51
76827;BME280;65788;52.284;20.890;2023-04-01T21:11:31;99268.73;;;19.68;44.39
76827;BME280;65788;52.284;20.890;2023-04-01T21:14:27;99275.98;;;19.68;44.32
76827;BME280;65788;52.284;20.890;2023-04-01T21:23:31;99278.74;;;19.64;44.32
76827;BME280;65788;52.284;20.890;2023-04-01T21:31:36;99293.65;;;19.65;44.15
76827;BME280;65788;52.284;20.890;2023-04-01T21:37:36;99302.20;;;19.66;44.05
76827;BME280;65788;52.284;20.890;2023-04-01T22:07:21;99332.84;;;19.60;43.85
76827;BME280;65788;52.284;20.890;2023-04-01T22:12:23;99332.30;;;19.54;44.08
76827;BME280;65788;52.284;20.890;2023-04-01T22:28:03;99348.68;;;19.54;43.61
76827;BME280;65788;52.284;20.890;2023-04-01T22:30:41;99350.83;;;19.54;43.58
76827;BME280;65788;52.284;20.890;2023-04-01T22:36:00;99355.58;;;19.52;43.51
76827;BME280;65788;52.284;20.890;2023-04-01T22:38:46;99359.14;;;19.49;43.53
76827;BME280;65788;52.284;20.890;2023-04-01T22:46:56;99366.90;;;19.50;43.43
76827;BME280;65788;52.284;20.890;2023-04-01T22:49:38;99370.06;;;19.47;43.46
76827;BME280;65788;52.284;20.890;2023-04-01T22:52:31;99371.52;;;19.47;43.45
76827;BME280;65788;52.284;20.890;2023-04-01T22:55:04;99371.25;;;19.48;43.38
76827;BME280;65788;52.284;20.890;2023-04-01T22:58:00;99377.38;;;19.49;43.32
76827;BME280;65788;52.284;20.890;2023-04-01T23:00:36;99378.73;;;19.47;43.35
76827;BME280;65788;52.284;20.890;2023-04-01T23:03:25;99377.94;;;19.47;43.34
76827;BME280;65788;52.284;20.890;2023-04-01T23:06:00;99382.36;;;19.45;43.34
76827;BME280;65788;52.284;20.890;2023-04-01T23:11:12;99378.48;;;19.43;43.36
76827;BME280;65788;52.284;20.890;2023-04-01T23:13:46;99384.73;;;19.45;43.32
76827;BME280;65788;52.284;20.890;2023-04-01T23:16:16;99384.24;;;19.43;43.33
76827;BME280;65788;52.284;20.890;2023-04-01T23:19:01;99384.02;;;19.39;43.39
76827;BME280;65788;52.284;20.890;2023-04-01T23:21:40;99386.70;;;19.40;43.39
76827;BME280;65788;52.284;20.890;2023-04-01T23:24:21;99391.02;;;19.39;43.38
76827;BME280;65788;52.284;20.890;2023-04-01T23:27:02;99394.99;;;19.42;43.35
76827;BME280;65788;52.284;20.890;2023-04-01T23:29:35;99395.67;;;19.39;43.37
76827;BME280;65788;52.284;20.890;2023-04-01T23:32:04;99401.02;;;19.38;43.39
76827;BME280;65788;52.284;20.890;2023-04-01T23:34:35;99406.52;;;19.41;43.34